Jennerstown, PA (15547)

4:23 AM EST on February 10, 2016 (GMT -0500)
Ridgeview Rd. | | Change Station
CLOSE
Current Station
Personal Weather Station
Location: Boswell, PA
Elevation: 2864 ft
Nearby Weather Stations

Elev 2864 ft 40.20 °N, 79.12 °W | Updated 13 minutes ago

Overcast
Overcast
15.6 °F
Feels Like 6 °F
N
6.3
Wind Variable Wind from South

Today
High -- | Low -- °F
--% Chance of Precip.
Yesterday
High -- | Low -- °F
Precip. -- in
Pressure 29.68 in
Visibility 7.0 miles
Clouds Overcast 900 ft
Windchill 6 °F
Dew Point 14 °F
Humidity 92%
Rainfall 0.00 in
Snow Depth Not available.
7:16 AM 5:45 PM
Waxing Crescent, 4% visible
METAR KJST 100854Z AUTO 26016G23KT 7SM UP OVC009 M07/M10 A2958 RMK AO2 PK WND 25027/0839 UPB01E15B45SNE01B15E45 SLP049 P0000 60000 T10671100 53002
Pressure 29.68 in
Visibility 7.0 miles
Clouds Overcast 900 ft
Windchill 6 °F
Dew Point 14 °F
Humidity 92%
Rainfall 0.00 in
Snow Depth Not available.
7:16 AM 5:45 PM
Waxing Crescent, 4% visible
METAR KJST 100854Z AUTO 26016G23KT 7SM UP OVC009 M07/M10 A2958 RMK AO2 PK WND 25027/0839 UPB01E15B45SNE01B15E45 SLP049 P0000 60000 T10671100 53002

10-Day Weather Forecast

Almanac

Astronomy

Feb. 10, 2016 Rise Set
Actual Time
Civil Twilight
Nautical Twilight
Astronomical Twilight
Moon
Length of Visible Light
Length of Day
Tomorrow will be .
, % of the Moon is Illuminated

Today's Extremes

State Highs State Lows

Community

WunderPhotos

Upload Photos

1,891,826 photos uploaded!

WunderBlog® & News

Nearby

Air Quality

  Air Quality AQ Index Pollutant
Not available.

Snow Depth

Station Depth Elevation

Earthquake Activity

City Distance Mag. Time & Date
Minimum magnitude displayed is 2.5.

Coastal Water Temperatures

Place Temperature

Stations

Nearby Weather Stations

Station Location Temp. Windchill Dew Point Humidity Wind Precip. Elev Updated Type
                   

Watches & Warnings

Winter Weather Advisory
Issued: 3:30 AM EST Feb. 10, 2016 – National Weather Service

... Winter Weather Advisory now in effect until 1 PM EST
Thursday...

* snow accumulations... generally 4 to 6 inches. West-facing
slopes could reach as much as 10 inches over the next 30 hours.

* Timing... occasional snow showers will continue through Thursday
morning.

* Impacts... untreated roads will be snow covered and hazardous.
Winds of 10 to 15 mph with higher gusts will lead to blowing
and drifting snow.

Precautionary/preparedness actions...

Hazardous winter weather conditions are expected or occurring.
Use caution if traveling. For the latest weather information... go
to weather.Gov/statecollege or monitor NOAA Weather Radio.

Report snow or ice accumulation to the National Weather Service
State College by sending an email to ctp.Stormreports@noaa.Gov...
posting to the NWS State College facebook Page... or tweet
@nwsstatecollege with the hashtag c... T... p... W... x.